Time;durP1;ratioP1;P1;durP2;ratioP2;P2;SDS_P1;SDS_P2;PMS_P1;PMS_P2;Temp;Humidity;BMP_temperature;BMP_pressure;BME280_temperature;BME280_humidity;BME280_pressure;Samples;Min_cycle;Max_cycle;Signal;HPM_P1;HPM_P2
2021/12/12 00:02:26;;;;;;;;;;;;;;;3.55;100.00;102036.16;5057063;28;19917;-42
2021/12/12 00:04:52;;;;;;;;;;;;;;;3.55;100.00;102032.66;5052602;28;20108;-43
2021/12/12 00:07:25;;;;;;;;;;;;;;;3.55;100.00;102035.31;5048223;28;19917;-44
2021/12/12 00:09:52;;;;;;;;;;;;;;;3.57;100.00;102028.16;5045010;28;20117;-45
2021/12/12 00:12:24;;;;;;;;;;;;;;;3.58;100.00;102031.63;5056706;28;20251;-44
2021/12/12 00:14:51;;;;;;;;;;;;;;;3.61;100.00;102034.94;5057453;28;19936;-43
2021/12/12 00:17:17;;;;;;;;;;;;;;;3.63;100.00;102033.09;5037965;28;19952;-44
2021/12/12 00:19:42;;;;;;;;;;;;;;;3.63;100.00;102019.00;5057406;28;19951;-42
2021/12/12 00:22:10;;;;;;;;;;;;;;;3.65;100.00;102019.78;5041588;28;19924;-42
2021/12/12 00:24:37;;;;;;;;;;;;;;;3.63;100.00;102030.47;5047769;28;20129;-43
2021/12/12 00:27:02;;;;;;;;;;;;;;;3.66;100.00;102026.78;5059140;28;19966;-43
2021/12/12 00:29:28;;;;;;;;;;;;;;;3.67;100.00;102016.13;5059291;28;20028;-43
2021/12/12 00:31:57;;;;;;;;;;;;;;;3.70;100.00;102007.16;5059075;28;19913;-41
2021/12/12 00:34:23;;;;;;;;;;;;;;;3.69;100.00;102008.94;5058799;28;20011;-42
2021/12/12 00:36:49;;;;;;;;;;;;;;;3.71;100.00;102008.88;5057722;28;20722;-41
2021/12/12 00:39:17;;;;;;;;;;;;;;;3.69;100.00;102008.13;5036811;28;20014;-43
2021/12/12 00:41:42;;;;;;;;;;;;;;;3.69;100.00;102005.47;5047679;28;20290;-41
2021/12/12 00:44:08;;;;;;;;;;;;;;;3.71;100.00;102004.44;5045925;28;20014;-43
2021/12/12 00:46:34;;;;;;;;;;;;;;;3.72;100.00;102000.00;5039197;28;20000;-42
2021/12/12 00:48:59;;;;;;;;;;;;;;;3.69;100.00;102003.66;5037743;28;19924;-41
2021/12/12 00:51:27;;;;;;;;;;;;;;;3.68;100.00;102004.63;5040613;28;19913;-43
2021/12/12 00:53:53;;;;;;;;;;;;;;;3.69;100.00;102000.19;5049590;28;19916;-45
2021/12/12 00:56:19;;;;;;;;;;;;;;;3.70;100.00;101991.31;5053806;28;19982;-41
2021/12/12 00:58:44;;;;;;;;;;;;;;;3.68;100.00;101975.56;5037655;28;19944;-45
2021/12/12 01:01:17;;;;;;;;;;;;;;;3.69;100.00;101981.69;5055757;28;19917;-44
2021/12/12 01:03:53;;;;;;;;;;;;;;;3.69;100.00;101979.88;5050601;28;20014;-44
2021/12/12 01:06:20;;;;;;;;;;;;;;;3.68;100.00;101970.28;5034284;28;19941;-42
2021/12/12 01:08:46;;;;;;;;;;;;;;;3.66;100.00;101985.34;5036111;28;20197;-42
2021/12/12 01:11:14;;;;;;;;;;;;;;;3.68;100.00;101980.84;5044320;28;20304;-42
2021/12/12 01:13:39;;;;;;;;;;;;;;;3.68;100.00;101975.56;5040993;28;20818;-42
2021/12/12 01:16:28;;;;;;;;;;;;;;;3.67;100.00;101976.50;5044502;28;19956;-42
2021/12/12 01:18:56;;;;;;;;;;;;;;;3.69;100.00;101984.34;5034309;28;19912;-42
2021/12/12 01:21:24;;;;;;;;;;;;;;;3.70;100.00;101978.97;5040623;28;19920;-43
2021/12/12 01:23:59;;;;;;;;;;;;;;;3.72;100.00;101986.81;5037736;28;20314;-43
2021/12/12 01:26:24;;;;;;;;;;;;;;;3.71;100.00;101985.94;5019733;28;19916;-43
2021/12/12 01:28:53;;;;;;;;;;;;;;;3.74;100.00;101987.56;5036718;28;19973;-42
2021/12/12 01:31:25;;;;;;;;;;;;;;;3.77;100.00;101982.09;5033870;28;19916;-43
2021/12/12 01:33:59;;;;;;;;;;;;;;;3.77;100.00;101983.88;5035833;28;20365;-43
2021/12/12 01:36:32;;;;;;;;;;;;;;;3.78;100.00;101977.66;5048681;28;19917;-43
2021/12/12 01:39:00;;;;;;;;;;;;;;;3.77;100.00;101983.88;5023575;28;20035;-42
2021/12/12 01:41:29;;;;;;;;;;;;;;;3.76;100.00;101976.91;5052432;28;20458;-42
2021/12/12 01:43:57;;;;;;;;;;;;;;;3.76;100.00;101980.38;5051620;28;20012;-42
2021/12/12 01:46:25;;;;;;;;;;;;;;;3.77;100.00;101981.22;5053618;28;20026;-44
2021/12/12 01:48:50;;;;;;;;;;;;;;;3.77;100.00;101976.81;5054128;28;19916;-44
2021/12/12 01:51:16;;;;;;;;;;;;;;;3.80;100.00;101979.28;5051875;28;20315;-43
2021/12/12 01:53:45;;;;;;;;;;;;;;;3.80;100.00;101978.41;5034909;28;19957;-43
2021/12/12 01:56:21;;;;;;;;;;;;;;;3.80;100.00;101968.72;5053356;28;19921;-44
2021/12/12 01:58:49;;;;;;;;;;;;;;;3.80;100.00;101979.28;5051755;28;20259;-42
2021/12/12 02:01:20;;;;;;;;;;;;;;;3.80;100.00;101976.66;5050979;28;20200;-45
2021/12/12 02:03:52;;;;;;;;;;;;;;;3.82;100.00;101976.53;5050858;28;19970;-42
2021/12/12 02:06:18;;;;;;;;;;;;;;;3.80;100.00;101979.28;5050892;28;20029;-44
2021/12/12 02:08:44;;;;;;;;;;;;;;;3.81;100.00;101977.50;5053831;28;19913;-44
2021/12/12 02:11:12;;;;;;;;;;;;;;;3.80;100.00;101974.00;5050726;28;19935;-42
2021/12/12 02:13:39;;;;;;;;;;;;;;;3.82;100.00;101972.13;5053433;28;19947;-45
2021/12/12 02:16:04;;;;;;;;;;;;;;;3.84;100.00;101970.22;5050698;28;19985;-44
2021/12/12 02:18:34;;;;;;;;;;;;;;;3.86;100.00;101970.97;5035703;28;20143;-45
2021/12/12 02:23:43;;;;;;;;;;;;;;;3.86;100.00;101973.63;5054790;28;20363;-42
2021/12/12 02:37:06;;;;;;;;;;;;;;;3.84;100.00;101959.66;5033484;28;20681;-44
2021/12/12 02:39:32;;;;;;;;;;;;;;;3.82;100.00;101947.47;5016403;28;20007;-42
2021/12/12 02:41:59;;;;;;;;;;;;;;;3.84;100.00;101950.91;5015535;28;19923;-42
2021/12/12 02:44:29;;;;;;;;;;;;;;;3.83;100.00;101939.44;5034670;28;19943;-44
2021/12/12 02:46:58;;;;;;;;;;;;;;;3.83;100.00;101947.38;5034314;28;20290;-43
2021/12/12 02:49:42;;;;;;;;;;;;;;;3.84;100.00;101938.53;5034138;28;20019;-48
2021/12/12 02:52:09;;;;;;;;;;;;;;;3.85;100.00;101936.72;5031918;28;20286;-47
2021/12/12 02:54:34;;;;;;;;;;;;;;;3.84;100.00;101938.53;5033477;28;19913;-43
2021/12/12 02:57:00;;;;;;;;;;;;;;;3.86;100.00;101935.78;5033571;28;20402;-43
2021/12/12 02:59:25;;;;;;;;;;;;;;;3.86;100.00;101935.78;5034722;28;19939;-42
2021/12/12 03:01:55;;;;;;;;;;;;;;;3.86;100.00;101933.16;5035083;28;20208;-42
2021/12/12 03:04:21;;;;;;;;;;;;;;;3.87;100.00;101940.13;5033849;28;19921;-42
2021/12/12 03:06:47;;;;;;;;;;;;;;;3.90;100.00;101942.59;5032408;28;19924;-46
2021/12/12 03:09:15;;;;;;;;;;;;;;;3.89;100.00;101933.81;5034430;28;19913;-42
2021/12/12 03:11:41;;;;;;;;;;;;;;;3.92;100.00;101930.13;5034729;28;20298;-44
2021/12/12 03:14:07;;;;;;;;;;;;;;;3.93;100.00;101932.69;5036791;28;20062;-42
2021/12/12 03:16:33;;;;;;;;;;;;;;;3.95;100.00;101937.88;5038363;28;19959;-45
2021/12/12 03:18:58;;;;;;;;;;;;;;;3.95;100.00;101932.59;5020095;28;19912;-44
2021/12/12 03:21:30;;;;;;;;;;;;;;;3.98;100.00;101926.28;5035754;28;19912;-44
2021/12/12 03:23:57;;;;;;;;;;;;;;;3.96;100.00;101913.16;5037745;28;19990;-44
2021/12/12 03:26:24;;;;;;;;;;;;;;;4.03;100.00;101914.47;5037224;28;19920;-42
2021/12/12 03:28:51;;;;;;;;;;;;;;;4.03;100.00;101903.91;5039202;28;20416;-45
2021/12/12 03:31:27;;;;;;;;;;;;;;;4.05;100.00;101899.38;5037205;28;20343;-44
2021/12/12 03:33:53;;;;;;;;;;;;;;;4.05;100.00;101904.66;5038491;28;19923;-46
2021/12/12 03:36:18;;;;;;;;;;;;;;;4.07;100.00;101902.81;5054046;28;19912;-42
2021/12/12 03:38:46;;;;;;;;;;;;;;;4.08;100.00;101896.56;5057833;28;20548;-42
2021/12/12 03:41:13;;;;;;;;;;;;;;;4.11;100.00;101898.16;5057740;28;19923;-44
2021/12/12 03:43:38;;;;;;;;;;;;;;;4.13;100.00;101898.09;5057735;28;20251;-43
2021/12/12 03:46:06;;;;;;;;;;;;;;;4.13;100.00;101906.00;5055862;28;20418;-45
2021/12/12 03:48:32;;;;;;;;;;;;;;;4.15;100.00;101907.59;5057161;28;20008;-42
2021/12/12 03:50:59;;;;;;;;;;;;;;;4.16;100.00;101911.09;5055615;28;20003;-43
2021/12/12 03:53:26;;;;;;;;;;;;;;;4.18;100.00;101904.78;5056980;28;19959;-42
2021/12/12 03:55:51;;;;;;;;;;;;;;;4.22;100.00;101902.78;5057701;28;20038;-42
2021/12/12 03:58:16;;;;;;;;;;;;;;;4.25;100.00;101921.13;5056843;28;20279;-43
2021/12/12 04:00:50;;;;;;;;;;;;;;;4.29;100.00;101912.06;5038906;28;19952;-44
2021/12/12 04:03:15;;;;;;;;;;;;;;;4.31;100.00;101907.50;5056735;28;19935;-43
2021/12/12 04:05:45;;;;;;;;;;;;;;;4.34;100.00;101898.56;5056523;28;19916;-43
2021/12/12 04:08:10;;;;;;;;;;;;;;;4.34;100.00;101909.13;5057343;28;19970;-45
2021/12/12 04:10:36;;;;;;;;;;;;;;;4.38;100.00;101905.34;5056726;28;20349;-43
2021/12/12 04:13:01;;;;;;;;;;;;;;;4.38;100.00;101924.72;5053486;28;19920;-44
2021/12/12 04:15:27;;;;;;;;;;;;;;;4.40;100.00;101914.06;5037622;28;19931;-48
2021/12/12 04:17:52;;;;;;;;;;;;;;;4.41;100.00;101916.59;5037479;28;19912;-44
2021/12/12 04:20:20;;;;;;;;;;;;;;;4.45;100.00;101915.47;5035079;28;19923;-44
2021/12/12 04:22:45;;;;;;;;;;;;;;;4.44;100.00;101910.25;5037430;28;19947;-41
2021/12/12 04:25:11;;;;;;;;;;;;;;;4.52;100.00;101900.06;5017168;28;20395;-44
2021/12/12 04:27:37;;;;;;;;;;;;;;;4.53;100.00;101911.47;5036491;28;19912;-46
2021/12/12 04:30:04;;;;;;;;;;;;;;;4.57;100.00;101902.44;5036266;28;20295;-45
2021/12/12 04:32:29;;;;;;;;;;;;;;;4.51;100.00;101911.56;5037458;28;19971;-45
2021/12/12 04:34:57;;;;;;;;;;;;;;;4.53;100.00;101916.78;5043292;28;20033;-42
2021/12/12 04:37:22;;;;;;;;;;;;;;;4.51;100.00;101908.09;5055690;28;19912;-46
2021/12/12 04:39:50;;;;;;;;;;;;;;;4.48;100.00;101917.91;5055979;28;19923;-43
2021/12/12 04:42:19;;;;;;;;;;;;;;;4.48;100.00;101917.06;5056296;28;19918;-43
2021/12/12 04:44:46;;;;;;;;;;;;;;;4.52;100.00;101918.56;5057154;28;20514;-47
2021/12/12 04:50:17;;;;;;;;;;;;;;;4.55;100.00;101913.09;5054816;28;19923;-43
2021/12/12 04:52:42;;;;;;;;;;;;;;;4.56;100.00;101909.50;5057559;28;20127;-45
2021/12/12 04:55:14;;;;;;;;;;;;;;;4.58;100.00;101907.63;5037334;28;19916;-44
2021/12/12 04:57:42;;;;;;;;;;;;;;;4.59;100.00;101913.75;5056739;28;20856;-46
2021/12/12 05:00:12;;;;;;;;;;;;;;;4.60;100.00;101928.66;5055975;28;19999;-43
2021/12/12 05:02:46;;;;;;;;;;;;;;;4.60;100.00;101918.97;5056209;28;20343;-44
2021/12/12 05:05:26;;;;;;;;;;;;;;;4.62;100.00;101925.00;5054781;28;20294;-44
2021/12/12 05:07:53;;;;;;;;;;;;;;;4.65;100.00;101931.88;5055343;28;19913;-44
2021/12/12 05:10:24;;;;;;;;;;;;;;;4.63;100.00;101934.66;5055574;28;19912;-42
2021/12/12 05:13:05;;;;;;;;;;;;;;;4.65;100.00;101942.47;5057022;28;19912;-43
2021/12/12 05:15:56;;;;;;;;;;;;;;;4.69;100.00;101940.50;5056605;28;19916;-44
2021/12/12 05:18:28;;;;;;;;;;;;;;;4.71;100.00;101954.47;5053199;28;19977;-44
2021/12/12 05:20:58;;;;;;;;;;;;;;;4.72;100.00;101943.81;5055155;28;20131;-43
2021/12/12 05:23:26;;;;;;;;;;;;;;;4.72;100.00;101930.56;5055762;28;19912;-46
2021/12/12 05:25:54;;;;;;;;;;;;;;;4.73;100.00;101936.69;5054879;28;20248;-44
2021/12/12 05:28:22;;;;;;;;;;;;;;;4.75;100.00;101934.81;5055998;28;19924;-44
2021/12/12 05:30:48;;;;;;;;;;;;;;;4.77;100.00;101933.78;5056866;28;20287;-47
2021/12/12 05:33:15;;;;;;;;;;;;;;;4.78;100.00;101938.09;5038391;28;19912;-46
2021/12/12 05:35:41;;;;;;;;;;;;;;;4.80;100.00;101941.53;5042103;28;20215;-44
2021/12/12 05:38:07;;;;;;;;;;;;;;;4.80;100.00;101941.53;5034927;28;20007;-43
2021/12/12 05:40:34;;;;;;;;;;;;;;;4.81;100.00;101939.72;5035228;28;19943;-42
2021/12/12 05:43:00;;;;;;;;;;;;;;;4.85;100.00;101938.56;5035836;28;20367;-44
2021/12/12 05:45:26;;;;;;;;;;;;;;;4.86;100.00;101948.22;5035669;28;20172;-42
2021/12/12 05:47:52;;;;;;;;;;;;;;;4.93;100.00;101944.22;5036171;28;20047;-42
2021/12/12 05:50:18;;;;;;;;;;;;;;;4.92;100.00;101931.09;5033748;28;20011;-42
2021/12/12 05:52:44;;;;;;;;;;;;;;;4.92;100.00;101937.25;5035716;28;19920;-42
2021/12/12 05:55:10;;;;;;;;;;;;;;;4.95;100.00;101942.34;5034157;28;20295;-43
2021/12/12 05:57:35;;;;;;;;;;;;;;;4.95;100.00;101947.63;5035748;28;20015;-43
2021/12/12 06:00:03;;;;;;;;;;;;;;;4.96;100.00;101936.09;5035195;28;19994;-45
2021/12/12 06:02:29;;;;;;;;;;;;;;;4.99;100.00;101932.41;5035942;28;19912;-45
2021/12/12 06:04:55;;;;;;;;;;;;;;;4.99;100.00;101932.41;5034364;28;19921;-44
2021/12/12 06:07:20;;;;;;;;;;;;;;;5.00;100.00;101944.69;5034567;28;20419;-44
2021/12/12 06:09:47;;;;;;;;;;;;;;;5.03;100.00;101953.28;5034550;28;20160;-43
2021/12/12 06:12:12;;;;;;;;;;;;;;;5.05;100.00;101950.53;5035376;28;19916;-45
2021/12/12 06:14:38;;;;;;;;;;;;;;;5.06;100.00;101941.66;5035381;28;20011;-45
2021/12/12 06:17:06;;;;;;;;;;;;;;;5.11;100.00;101947.53;5034597;28;20381;-46
2021/12/12 06:19:32;;;;;;;;;;;;;;;5.15;100.00;101951.66;5017185;28;19939;-45
2021/12/12 06:21:59;;;;;;;;;;;;;;;5.18;100.00;101948.81;5033260;28;20392;-43
2021/12/12 06:24:25;;;;;;;;;;;;;;;5.22;100.00;101960.06;5042817;28;19920;-43
2021/12/12 06:26:51;;;;;;;;;;;;;;;5.25;100.00;101964.31;5054778;28;20451;-45
2021/12/12 06:29:16;;;;;;;;;;;;;;;5.26;100.00;101955.41;5054527;28;19916;-43
2021/12/12 06:31:43;;;;;;;;;;;;;;;5.28;100.00;101964.97;5037482;28;19941;-46
2021/12/12 06:34:09;;;;;;;;;;;;;;;5.27;100.00;101965.91;5054790;28;19912;-43
2021/12/12 06:36:34;;;;;;;;;;;;;;;5.29;100.00;101971.09;5052395;28;20281;-43
2021/12/12 06:39:00;;;;;;;;;;;;;;;5.32;100.00;101968.28;5054307;28;19916;-44
2021/12/12 06:41:26;;;;;;;;;;;;;;;5.33;100.00;101964.66;5054672;28;20312;-43
2021/12/12 06:43:52;;;;;;;;;;;;;;;5.35;100.00;101962.78;5055522;28;19913;-42
2021/12/12 06:46:18;;;;;;;;;;;;;;;5.35;100.00;101960.13;5054293;28;20010;-45
2021/12/12 06:48:43;;;;;;;;;;;;;;;5.38;100.00;101966.06;5054863;28;19988;-43
2021/12/12 06:51:09;;;;;;;;;;;;;;;5.40;100.00;101964.16;5052076;28;20513;-44
2021/12/12 06:53:37;;;;;;;;;;;;;;;5.45;100.00;101966.53;5054382;28;20456;-44
2021/12/12 06:56:03;;;;;;;;;;;;;;;5.46;100.00;101959.41;5054035;28;20286;-42
2021/12/12 06:58:29;;;;;;;;;;;;;;;5.45;100.00;101953.28;5054865;28;19924;-46
2021/12/12 07:00:56;;;;;;;;;;;;;;;5.46;100.00;101960.25;5054889;28;19963;-42
2021/12/12 07:03:22;;;;;;;;;;;;;;;5.49;100.00;101965.38;5054420;28;20004;-45
2021/12/12 07:05:47;;;;;;;;;;;;;;;5.53;100.00;101958.94;5052160;28;19976;-42
2021/12/12 07:08:14;;;;;;;;;;;;;;;5.54;100.00;101950.00;5054197;28;19917;-43
2021/12/12 07:10:39;;;;;;;;;;;;;;;5.60;100.00;101954.06;5054190;28;19919;-43
2021/12/12 07:13:06;;;;;;;;;;;;;;;5.62;100.00;101957.47;5051093;28;20501;-46
2021/12/12 07:15:33;;;;;;;;;;;;;;;5.64;100.00;101958.22;5034610;28;19982;-45
2021/12/12 07:18:04;;;;;;;;;;;;;;;5.67;100.00;101960.66;5029020;28;20291;-42
2021/12/12 07:20:29;;;;;;;;;;;;;;;5.67;100.00;101967.75;5032071;28;20016;-44
2021/12/12 07:22:55;;;;;;;;;;;;;;;5.69;100.00;101966.72;5034840;28;20011;-42
2021/12/12 07:25:20;;;;;;;;;;;;;;;5.69;100.00;101968.53;5033102;28;19925;-46
2021/12/12 07:27:49;;;;;;;;;;;;;;;5.70;100.00;101965.78;5034672;28;20043;-43
2021/12/12 07:30:14;;;;;;;;;;;;;;;5.74;100.00;101980.50;5034550;28;20122;-42
2021/12/12 07:32:40;;;;;;;;;;;;;;;5.80;100.00;101976.59;5034474;28;20460;-42
2021/12/12 07:35:09;;;;;;;;;;;;;;;5.77;100.00;101977.66;5031216;28;19924;-45
2021/12/12 07:37:35;;;;;;;;;;;;;;;5.84;100.00;101988.69;5034009;28;19966;-49
2021/12/12 07:40:01;;;;;;;;;;;;;;;5.85;100.00;101986.91;5033489;28;19921;-45
2021/12/12 07:42:26;;;;;;;;;;;;;;;5.88;100.00;101982.22;5034215;28;19959;-43
2021/12/12 07:44:53;;;;;;;;;;;;;;;5.87;100.00;101987.63;5034268;28;19947;-44
2021/12/12 07:47:18;;;;;;;;;;;;;;;5.89;100.00;101999.84;5034045;28;20290;-44
2021/12/12 07:49:46;;;;;;;;;;;;;;;5.96;100.00;101987.91;5032435;28;19904;-44
2021/12/12 07:52:14;;;;;;;;;;;;;;;5.98;100.00;101991.31;5042006;28;19912;-43
2021/12/12 07:54:41;;;;;;;;;;;;;;;5.95;100.00;102003.88;5035147;28;19916;-43
2021/12/12 07:57:06;;;;;;;;;;;;;;;5.93;100.00;101998.69;5053438;28;20209;-46
2021/12/12 07:59:32;;;;;;;;;;;;;;;5.96;100.00;101995.03;5053482;28;20071;-45
2021/12/12 08:01:58;;;;;;;;;;;;;;;5.98;100.00;102004.56;5056036;28;19912;-46
2021/12/12 08:04:26;;;;;;;;;;;;;;;5.96;100.00;102001.16;5036960;28;19975;-43
2021/12/12 08:06:51;;;;;;;;;;;;;;;6.00;100.00;102000.97;5036497;28;19931;-43
2021/12/12 08:09:18;;;;;;;;;;;;;;;5.99;100.00;102013.34;5040574;28;20057;-43
2021/12/12 08:11:43;;;;;;;;;;;;;;;6.01;100.00;102011.47;5056769;28;19912;-43
2021/12/12 08:14:11;;;;;;;;;;;;;;;6.02;100.00;102013.16;5056486;28;19965;-45
2021/12/12 08:16:37;;;;;;;;;;;;;;;6.02;100.00;102018.47;5036488;28;20453;-44
2021/12/12 08:19:03;;;;;;;;;;;;;;;6.05;100.00;102018.25;5055404;28;19948;-43
2021/12/12 08:21:33;;;;;;;;;;;;;;;6.07;100.00;102020.81;5036268;28;20332;-43
2021/12/12 08:23:59;;;;;;;;;;;;;;;6.09;100.00;102021.56;5055462;28;19921;-46
2021/12/12 08:26:24;;;;;;;;;;;;;;;6.10;100.00;102032.06;5054764;28;19923;-44
2021/12/12 08:28:49;;;;;;;;;;;;;;;6.16;100.00;102028.13;5055421;28;19989;-45
2021/12/12 08:31:16;;;;;;;;;;;;;;;6.16;100.00;102034.31;5054285;28;19916;-45
2021/12/12 08:33:41;;;;;;;;;;;;;;;6.20;100.00;102034.13;5055869;28;20413;-46
2021/12/12 08:36:08;;;;;;;;;;;;;;;6.20;100.00;102037.59;5052934;28;19917;-46
2021/12/12 08:38:33;;;;;;;;;;;;;;;6.24;100.00;102043.56;5054212;28;20398;-43
2021/12/12 08:40:59;;;;;;;;;;;;;;;6.27;100.00;102046.00;5053754;28;19970;-45
2021/12/12 08:43:25;;;;;;;;;;;;;;;6.31;100.00;102051.00;5054995;28;19985;-45
2021/12/12 08:45:53;;;;;;;;;;;;;;;6.32;100.00;102054.50;5054724;28;20018;-48
2021/12/12 08:48:19;;;;;;;;;;;;;;;6.35;100.00;102049.84;5054272;28;19966;-44
2021/12/12 08:50:46;;;;;;;;;;;;;;;6.36;100.00;102048.03;5054218;28;19912;-43
2021/12/12 08:53:12;;;;;;;;;;;;;;;6.38;100.00;102056.72;5054828;28;20312;-44
2021/12/12 08:55:42;;;;;;;;;;;;;;;6.40;100.00;102049.53;5054182;28;20019;-43
2021/12/12 08:58:15;;;;;;;;;;;;;;;6.43;100.00;102053.75;5053724;28;20155;-44
2021/12/12 09:00:49;;;;;;;;;;;;;;;6.44;100.00;102061.63;5052748;28;20509;-43
2021/12/12 09:03:22;;;;;;;;;;;;;;;6.46;100.00;102061.53;5050089;28;19964;-43
2021/12/12 09:05:48;;;;;;;;;;;;;;;6.46;100.00;102064.19;5052650;28;19923;-44
2021/12/12 09:08:34;;;;;;;;;;;;;;;6.47;100.00;102061.44;5054338;28;20302;-44
2021/12/12 09:11:06;;;;;;;;;;;;;;;6.49;100.00;102066.63;5052714;28;20011;-46
2021/12/12 09:13:45;;;;;;;;;;;;;;;6.52;100.00;102069.09;5053061;28;20007;-45
2021/12/12 09:16:20;;;;;;;;;;;;;;;6.53;100.00;102076.06;5054327;28;20066;-45
2021/12/12 09:18:48;;;;;;;;;;;;;;;6.52;100.00;102074.38;5054263;28;20087;-44
2021/12/12 09:21:23;;;;;;;;;;;;;;;6.53;100.00;102086.69;5052544;28;20363;-46
2021/12/12 09:24:01;;;;;;;;;;;;;;;6.57;100.00;102089.97;5051966;28;20266;-46
2021/12/12 09:26:26;;;;;;;;;;;;;;;6.59;100.00;102091.59;5050328;28;19934;-44
2021/12/12 09:29:10;;;;;;;;;;;;;;;6.61;100.00;102100.28;5054027;28;19912;-44
2021/12/12 09:31:39;;;;;;;;;;;;;;;6.62;100.00;102101.13;5052806;28;20105;-45
2021/12/12 09:34:08;;;;;;;;;;;;;;;6.64;100.00;102101.91;5052118;28;19923;-47
2021/12/12 09:36:37;;;;;;;;;;;;;;;6.63;100.00;102097.53;5051542;28;19968;-45
2021/12/12 09:39:11;;;;;;;;;;;;;;;6.68;100.00;102104.22;5050289;28;19959;-45
2021/12/12 09:41:42;;;;;;;;;;;;;;;6.70;100.00;102110.31;5053212;28;20350;-45
2021/12/12 09:44:26;;;;;;;;;;;;;;;6.71;100.00;102106.69;5050901;28;20224;-46
2021/12/12 09:47:00;;;;;;;;;;;;;;;6.73;100.00;102111.88;5054607;28;20285;-45
2021/12/12 09:52:42;;;;;;;;;;;;;;;6.79;100.00;102099.97;5054475;28;19919;-44
2021/12/12 09:55:21;;;;;;;;;;;;;;;6.80;100.00;102104.34;5051935;28;19946;-44
2021/12/12 09:57:49;;;;;;;;;;;;;;;6.82;100.00;102105.09;5052678;28;19979;-47
2021/12/12 10:00:22;;;;;;;;;;;;;;;6.85;100.00;102108.38;5054958;28;20556;-45
2021/12/12 10:02:48;;;;;;;;;;;;;;;6.84;100.00;102103.16;5051432;28;19927;-43
2021/12/12 10:05:19;;;;;;;;;;;;;;;6.88;100.00;102105.50;5050791;28;19916;-44
2021/12/12 10:07:50;;;;;;;;;;;;;;;6.86;100.00;102117.22;5053875;28;19928;-47
2021/12/12 10:10:33;;;;;;;;;;;;;;;6.89;100.00;102111.66;5049923;28;20207;-44
2021/12/12 10:13:02;;;;;;;;;;;;;;;6.90;100.00;102111.56;5053042;28;20336;-46
2021/12/12 10:15:28;;;;;;;;;;;;;;;6.91;100.00;102107.97;5054223;28;19965;-46
2021/12/12 10:17:59;;;;;;;;;;;;;;;6.93;100.00;102099.91;5036671;28;19916;-47
2021/12/12 10:20:30;;;;;;;;;;;;;;;6.95;100.00;102108.59;5052290;28;19924;-47
2021/12/12 10:23:04;;;;;;;;;;;;;;;6.99;100.00;102107.44;5053834;28;20275;-48
2021/12/12 10:25:31;;;;;;;;;;;;;;;6.99;100.00;102106.56;5053850;28;19924;-46
2021/12/12 10:27:58;;;;;;;;;;;;;;;7.01;100.00;102109.97;5053692;28;19959;-43
2021/12/12 10:30:24;;;;;;;;;;;;;;;7.02;100.00;102112.53;5053377;28;19912;-44
2021/12/12 10:33:10;;;;;;;;;;;;;;;7.04;100.00;102118.59;5054346;28;19912;-46
2021/12/12 10:35:41;;;;;;;;;;;;;;;7.05;100.00;102112.31;5049764;28;20529;-45
2021/12/12 10:38:21;;;;;;;;;;;;;;;7.08;100.00;102113.91;5053578;28;19913;-46
2021/12/12 10:40:52;;;;;;;;;;;;;;;7.12;100.00;102117.22;5053981;28;19921;-44
2021/12/12 10:43:23;;;;;;;;;;;;;;;7.12;100.00;102117.22;5051768;28;19917;-47
2021/12/12 10:45:54;;;;;;;;;;;;;;;7.13;100.00;102109.13;5054247;28;20038;-44
2021/12/12 10:48:20;;;;;;;;;;;;;;;7.18;100.00;102114.97;5053683;28;20011;-46
2021/12/12 10:50:55;;;;;;;;;;;;;;;7.18;100.00;102114.09;5053292;28;20485;-46
2021/12/12 10:53:29;;;;;;;;;;;;;;;7.22;100.00;102121.75;5051636;28;19924;-45
2021/12/12 10:56:03;;;;;;;;;;;;;;;7.22;100.00;102119.09;5042994;28;19936;-46
2021/12/12 10:58:34;;;;;;;;;;;;;;;7.26;100.00;102115.28;5048226;28;19974;-45
2021/12/12 11:01:01;;;;;;;;;;;;;;;7.29;100.00;102112.41;5053992;28;19913;-44
2021/12/12 11:03:31;;;;;;;;;;;;;;;7.33;100.00;102117.50;5051967;28;20346;-46
2021/12/12 11:06:00;;;;;;;;;;;;;;;7.39;100.00;102111.75;5051984;28;19943;-46
2021/12/12 11:08:38;;;;;;;;;;;;;;;7.42;100.00;102111.53;5033493;28;20156;-44
2021/12/12 11:11:09;;;;;;;;;;;;;;;7.40;100.00;102098.38;5053351;28;20091;-47
2021/12/12 11:13:38;;;;;;;;;;;;;;;7.47;100.00;102104.09;5053236;28;20011;-46
2021/12/12 11:16:39;;;;;;;;;;;;;;;7.45;100.00;102106.84;5053588;28;20011;-45
2021/12/12 11:19:20;;;;;;;;;;;;;;;7.49;100.00;102111.97;4972544;28;19910;-45
2021/12/12 11:21:48;;;;;;;;;;;;;;;7.52;100.00;102103.75;5034886;28;20103;-45
2021/12/12 11:24:19;;;;;;;;;;;;;;;7.55;100.00;102106.19;5052845;28;20326;-45
2021/12/12 11:26:53;;;;;;;;;;;;;;;7.55;100.00;102099.09;5054566;28;19932;-44
2021/12/12 11:29:23;;;;;;;;;;;;;;;7.58;100.00;102101.50;5051858;28;20374;-46
2021/12/12 11:32:00;;;;;;;;;;;;;;;7.58;100.00;102106.81;5054221;28;20019;-46
2021/12/12 11:34:27;;;;;;;;;;;;;;;7.61;100.00;102097.78;5051945;28;19923;-44
2021/12/12 11:37:05;;;;;;;;;;;;;;;7.61;100.00;102105.75;5057510;28;19916;-44
2021/12/12 11:39:34;;;;;;;;;;;;;;;7.65;100.00;102109.88;5058478;28;19920;-44
2021/12/12 11:42:05;;;;;;;;;;;;;;;7.64;100.00;102114.34;5054797;28;20350;-48
2021/12/12 11:44:37;;;;;;;;;;;;;;;7.65;100.00;102115.19;5056124;28;20429;-46
2021/12/12 11:47:08;;;;;;;;;;;;;;;7.64;100.00;102108.19;5057781;28;19924;-45
2021/12/12 11:49:36;;;;;;;;;;;;;;;7.65;100.00;102104.56;5056837;28;20433;-45
2021/12/12 11:52:03;;;;;;;;;;;;;;;7.65;100.00;102113.41;5057320;28;19947;-49
2021/12/12 11:54:40;;;;;;;;;;;;;;;7.65;100.00;102107.22;5056508;28;19916;-45
2021/12/12 11:57:09;;;;;;;;;;;;;;;7.64;100.00;102110.84;5054287;28;19938;-46
2021/12/12 11:59:41;;;;;;;;;;;;;;;7.67;100.00;102110.59;5055324;28;20508;-45
2021/12/12 12:02:25;;;;;;;;;;;;;;;7.68;100.00;102107.00;5056515;28;19958;-45
2021/12/12 12:05:04;;;;;;;;;;;;;;;7.69;100.00;102108.72;5055376;28;20433;-45
2021/12/12 12:07:29;;;;;;;;;;;;;;;7.72;100.00;102113.81;5054741;28;20436;-44
2021/12/12 12:10:06;;;;;;;;;;;;;;;7.72;100.00;102116.47;5057888;28;19916;-46
2021/12/12 12:12:41;;;;;;;;;;;;;;;7.73;100.00;102117.31;5056844;28;19981;-44
2021/12/12 12:15:12;;;;;;;;;;;;;;;7.73;100.00;102123.47;5057756;28;19942;-43
2021/12/12 12:17:37;;;;;;;;;;;;;;;7.76;100.00;102128.56;5058004;28;20376;-45
2021/12/12 12:20:08;;;;;;;;;;;;;;;7.76;100.00;102122.41;5054859;28;20416;-49
2021/12/12 12:22:44;;;;;;;;;;;;;;;7.78;100.00;102133.78;5056331;28;19924;-45
2021/12/12 12:25:17;;;;;;;;;;;;;;;7.78;100.00;102133.78;5051821;28;19982;-47
2021/12/12 12:27:51;;;;;;;;;;;;;;;7.79;100.00;102136.34;5037999;28;19942;-47
2021/12/12 12:30:36;;;;;;;;;;;;;;;7.81;100.00;102133.56;5047420;28;19917;-47
2021/12/12 12:33:20;;;;;;;;;;;;;;;7.84;100.00;102135.97;5037510;28;19916;-44
2021/12/12 12:35:54;;;;;;;;;;;;;;;7.88;100.00;102137.47;5055452;28;19928;-46
2021/12/12 12:38:31;;;;;;;;;;;;;;;7.88;100.00;102133.97;5056360;28;19920;-46
2021/12/12 12:41:15;;;;;;;;;;;;;;;7.88;100.00;102136.63;5055726;28;20393;-49
2021/12/12 12:43:59;;;;;;;;;;;;;;;7.90;100.00;102140.03;5039157;28;19916;-44
2021/12/12 12:46:43;;;;;;;;;;;;;;;7.91;100.00;102133.72;5055119;28;20388;-47
2021/12/12 12:49:27;;;;;;;;;;;;;;;7.92;100.00;102146.06;5055123;28;20437;-46
2021/12/12 12:52:12;;;;;;;;;;;;;;;7.94;100.00;102145.03;5055329;28;19916;-46
2021/12/12 12:54:37;;;;;;;;;;;;;;;7.95;100.00;102135.22;5057678;28;20007;-46
2021/12/12 12:57:21;;;;;;;;;;;;;;;7.96;100.00;102137.78;5058561;28;20011;-45
2021/12/12 12:59:48;;;;;;;;;;;;;;;7.96;100.00;102152.84;5039209;28;19940;-46
2021/12/12 13:02:16;;;;;;;;;;;;;;;7.96;100.00;102142.22;5056966;28;20080;-45
2021/12/12 13:04:47;;;;;;;;;;;;;;;7.93;100.00;102142.47;5055675;28;20366;-44
2021/12/12 13:07:27;;;;;;;;;;;;;;;7.92;100.00;102140.75;5056370;28;19913;-44